sensor_id;sensor_type;location;lat;lon;timestamp;pressure;altitude;pressure_sealevel;temperature;humidity
2188;BME280;1100;52.014;8.540;2023-02-15T00:01:07;101517.09;;;-0.32;88.38
2188;BME280;1100;52.014;8.540;2023-02-15T00:03:33;101514.22;;;-0.36;88.57
2188;BME280;1100;52.014;8.540;2023-02-15T00:05:58;101514.41;;;-0.41;88.18
2188;BME280;1100;52.014;8.540;2023-02-15T00:08:24;101502.84;;;-0.47;88.25
2188;BME280;1100;52.014;8.540;2023-02-15T00:10:49;101505.91;;;-0.48;88.27
2188;BME280;1100;52.014;8.540;2023-02-15T00:13:14;101502.06;;;-0.47;88.48
2188;BME280;1100;52.014;8.540;2023-02-15T00:15:40;101502.06;;;-0.47;88.64
2188;BME280;1100;52.014;8.540;2023-02-15T00:18:05;101500.94;;;-0.46;88.70
2188;BME280;1100;52.014;8.540;2023-02-15T00:20:30;101507.84;;;-0.49;88.58
2188;BME280;1100;52.014;8.540;2023-02-15T00:22:56;101503.81;;;-0.52;88.37
2188;BME280;1100;52.014;8.540;2023-02-15T00:25:21;101500.97;;;-0.55;88.51
2188;BME280;1100;52.014;8.540;2023-02-15T00:27:46;101496.16;;;-0.58;88.48
2188;BME280;1100;52.014;8.540;2023-02-15T00:30:12;101502.72;;;-0.59;88.43
2188;BME280;1100;52.014;8.540;2023-02-15T00:32:37;101497.94;;;-0.63;88.57
2188;BME280;1100;52.014;8.540;2023-02-15T00:35:03;101487.00;;;-0.63;88.50
2188;BME280;1100;52.014;8.540;2023-02-15T00:37:28;101491.19;;;-0.65;88.33
2188;BME280;1100;52.014;8.540;2023-02-15T00:39:53;101483.00;;;-0.65;88.53
2188;BME280;1100;52.014;8.540;2023-02-15T00:42:19;101493.13;;;-0.66;88.53
2188;BME280;1100;52.014;8.540;2023-02-15T00:44:44;101494.75;;;-0.65;88.72
2188;BME280;1100;52.014;8.540;2023-02-15T00:47:09;101492.00;;;-0.65;88.56
2188;BME280;1100;52.014;8.540;2023-02-15T00:49:35;101492.00;;;-0.65;88.67
2188;BME280;1100;52.014;8.540;2023-02-15T00:52:00;101498.44;;;-0.69;88.53
2188;BME280;1100;52.014;8.540;2023-02-15T00:54:25;101494.75;;;-0.73;88.36
2188;BME280;1100;52.014;8.540;2023-02-15T00:56:50;101493.50;;;-0.76;88.63
2188;BME280;1100;52.014;8.540;2023-02-15T00:59:16;101490.28;;;-0.78;88.46
2188;BME280;1100;52.014;8.540;2023-02-15T01:01:41;101494.13;;;-0.79;88.63
2188;BME280;1100;52.014;8.540;2023-02-15T01:04:06;101495.06;;;-0.75;88.76
2188;BME280;1100;52.014;8.540;2023-02-15T01:06:32;101485.56;;;-0.69;89.19
2188;BME280;1100;52.014;8.540;2023-02-15T01:08:57;101497.63;;;-0.70;88.75
2188;BME280;1100;52.014;8.540;2023-02-15T01:11:22;101494.75;;;-0.73;88.61
2188;BME280;1100;52.014;8.540;2023-02-15T01:13:53;101485.28;;;-0.76;88.83
2188;BME280;1100;52.014;8.540;2023-02-15T01:16:19;101479.66;;;-0.80;88.31
2188;BME280;1100;52.014;8.540;2023-02-15T01:18:45;101478.72;;;-0.84;88.33
2188;BME280;1100;52.014;8.540;2023-02-15T01:21:16;101478.91;;;-0.89;88.38
2188;BME280;1100;52.014;8.540;2023-02-15T01:23:42;101471.22;;;-0.96;88.39
2188;BME280;1100;52.014;8.540;2023-02-15T01:26:08;101471.41;;;-1.01;88.31
2188;BME280;1100;52.014;8.540;2023-02-15T01:28:34;101470.59;;;-1.02;88.67
2188;BME280;1100;52.014;8.540;2023-02-15T01:31:16;101469.16;;;-0.99;88.65
2188;BME280;1100;52.014;8.540;2023-02-15T01:33:42;101467.84;;;-1.02;88.71
2188;BME280;1100;52.014;8.540;2023-02-15T01:36:08;101457.25;;;-1.03;88.29
2188;BME280;1100;52.014;8.540;2023-02-15T01:38:34;101468.84;;;-1.06;88.42
2188;BME280;1100;52.014;8.540;2023-02-15T01:41:00;101452.97;;;-1.13;88.27
2188;BME280;1100;52.014;8.540;2023-02-15T01:43:46;101454.59;;;-1.21;88.37
2188;BME280;1100;52.014;8.540;2023-02-15T01:46:13;101452.84;;;-1.26;88.44
2188;BME280;1100;52.014;8.540;2023-02-15T01:48:48;101456.66;;;-1.27;88.55
2188;BME280;1100;52.014;8.540;2023-02-15T01:51:17;101453.50;;;-1.29;88.47
2188;BME280;1100;52.014;8.540;2023-02-15T01:54:01;101453.31;;;-1.32;88.53
2188;BME280;1100;52.014;8.540;2023-02-15T01:56:32;101452.50;;;-1.33;88.29
2188;BME280;1100;52.014;8.540;2023-02-15T01:59:03;101443.06;;;-1.35;88.47
2188;BME280;1100;52.014;8.540;2023-02-15T02:01:30;101450.09;;;-1.34;88.56
2188;BME280;1100;52.014;8.540;2023-02-15T02:06:31;101443.69;;;-1.39;88.48
2188;BME280;1100;52.014;8.540;2023-02-15T02:08:57;101442.09;;;-1.40;88.56
2188;BME280;1100;52.014;8.540;2023-02-15T02:11:23;101445.13;;;-1.41;88.64
2188;BME280;1100;52.014;8.540;2023-02-15T02:13:50;101440.31;;;-1.44;88.64
2188;BME280;1100;52.014;8.540;2023-02-15T02:16:19;101434.88;;;-1.44;88.60
2188;BME280;1100;52.014;8.540;2023-02-15T02:27:29;101429.44;;;-1.53;88.65
2188;BME280;1100;52.014;8.540;2023-02-15T02:33:16;101424.78;;;-1.61;88.34
2188;BME280;1100;52.014;8.540;2023-02-15T02:41:07;101417.25;;;-1.73;88.51
2188;BME280;1100;52.014;8.540;2023-02-15T02:43:44;101417.25;;;-1.73;88.62
2188;BME280;1100;52.014;8.540;2023-02-15T02:46:20;101410.53;;;-1.76;88.56
2188;BME280;1100;52.014;8.540;2023-02-15T02:48:48;101411.19;;;-1.79;88.45
2188;BME280;1100;52.014;8.540;2023-02-15T02:51:14;101411.00;;;-1.83;88.28
2188;BME280;1100;52.014;8.540;2023-02-15T02:53:46;101411.97;;;-1.88;88.37
2188;BME280;1100;52.014;8.540;2023-02-15T02:56:22;101406.03;;;-1.90;88.56
2188;BME280;1100;52.014;8.540;2023-02-15T02:58:54;101399.16;;;-1.87;88.54
2188;BME280;1100;52.014;8.540;2023-02-15T03:01:28;101398.03;;;-1.86;88.61
2188;BME280;1100;52.014;8.540;2023-02-15T03:04:00;101398.50;;;-1.84;88.54
2188;BME280;1100;52.014;8.540;2023-02-15T03:06:42;101398.19;;;-1.82;88.66
2188;BME280;1100;52.014;8.540;2023-02-15T03:09:42;101398.66;;;-1.80;88.68
2188;BME280;1100;52.014;8.540;2023-02-15T03:12:15;101383.44;;;-1.81;88.68
2188;BME280;1100;52.014;8.540;2023-02-15T03:14:43;101385.03;;;-1.80;88.68
2188;BME280;1100;52.014;8.540;2023-02-15T03:17:11;101387.44;;;-1.79;88.61
2188;BME280;1100;52.014;8.540;2023-02-15T03:19:38;101384.56;;;-1.82;88.42
2188;BME280;1100;52.014;8.540;2023-02-15T03:22:10;101391.44;;;-1.85;88.51
2188;BME280;1100;52.014;8.540;2023-02-15T03:24:53;101397.84;;;-1.90;88.37
2188;BME280;1100;52.014;8.540;2023-02-15T03:27:25;101393.69;;;-1.96;88.30
2188;BME280;1100;52.014;8.540;2023-02-15T03:29:55;101386.78;;;-2.02;88.35
2188;BME280;1100;52.014;8.540;2023-02-15T03:32:23;101389.38;;;-2.06;88.36
2188;BME280;1100;52.014;8.540;2023-02-15T03:34:50;101383.94;;;-2.06;88.40
2188;BME280;1100;52.014;8.540;2023-02-15T03:37:25;101391.59;;;-2.08;88.47
2188;BME280;1100;52.014;8.540;2023-02-15T03:39:55;101391.13;;;-2.01;88.80
2188;BME280;1100;52.014;8.540;2023-02-15T03:42:44;101388.88;;;-1.99;88.50
2188;BME280;1100;52.014;8.540;2023-02-15T03:45:15;101388.41;;;-2.01;88.47
2188;BME280;1100;52.014;8.540;2023-02-15T03:47:46;101387.94;;;-2.03;88.54
2188;BME280;1100;52.014;8.540;2023-02-15T03:50:19;101384.72;;;-2.05;88.60
2188;BME280;1100;52.014;8.540;2023-02-15T03:53:06;101385.19;;;-2.03;88.50
2188;BME280;1100;52.014;8.540;2023-02-15T03:55:34;101377.34;;;-2.05;88.31
2188;BME280;1100;52.014;8.540;2023-02-15T03:58:01;101374.94;;;-2.06;88.54
2188;BME280;1100;52.014;8.540;2023-02-15T04:00:59;101374.94;;;-2.06;88.95
2188;BME280;1100;52.014;8.540;2023-02-15T04:04:07;101365.97;;;-1.98;88.77
2188;BME280;1100;52.014;8.540;2023-02-15T04:06:34;101370.59;;;-1.98;88.58
2188;BME280;1100;52.014;8.540;2023-02-15T04:08:59;101362.75;;;-2.00;88.69
2188;BME280;1100;52.014;8.540;2023-02-15T04:11:43;101364.34;;;-2.08;88.26
2188;BME280;1100;52.014;8.540;2023-02-15T04:14:08;101361.16;;;-2.10;88.55
2188;BME280;1100;52.014;8.540;2023-02-15T04:16:52;101357.31;;;-2.09;88.78
2188;BME280;1100;52.014;8.540;2023-02-15T04:19:18;101364.03;;;-2.06;88.68
2188;BME280;1100;52.014;8.540;2023-02-15T04:22:02;101365.00;;;-2.02;88.62
2188;BME280;1100;52.014;8.540;2023-02-15T04:24:49;101365.31;;;-2.04;88.62
2188;BME280;1100;52.014;8.540;2023-02-15T04:27:33;101376.69;;;-2.02;88.53
2188;BME280;1100;52.014;8.540;2023-02-15T04:29:58;101368.53;;;-2.02;88.73
2188;BME280;1100;52.014;8.540;2023-02-15T04:32:23;101366.44;;;-2.05;88.48
2188;BME280;1100;52.014;8.540;2023-02-15T04:34:49;101358.59;;;-2.06;88.75
2188;BME280;1100;52.014;8.540;2023-02-15T04:37:14;101358.59;;;-2.06;88.77
2188;BME280;1100;52.014;8.540;2023-02-15T04:39:39;101356.50;;;-2.09;88.58
2188;BME280;1100;52.014;8.540;2023-02-15T04:42:05;101355.06;;;-2.07;88.98
2188;BME280;1100;52.014;8.540;2023-02-15T04:44:30;101345.78;;;-2.06;88.57
2188;BME280;1100;52.014;8.540;2023-02-15T04:46:55;101345.59;;;-2.09;88.57
2188;BME280;1100;52.014;8.540;2023-02-15T04:49:20;101344.66;;;-2.14;88.72
2188;BME280;1100;52.014;8.540;2023-02-15T04:51:46;101333.59;;;-2.17;88.40
2188;BME280;1100;52.014;8.540;2023-02-15T04:54:11;101334.41;;;-2.17;88.68
2188;BME280;1100;52.014;8.540;2023-02-15T04:56:36;101331.34;;;-2.15;88.65
2188;BME280;1100;52.014;8.540;2023-02-15T04:59:04;101323.63;;;-2.13;88.89
2188;BME280;1100;52.014;8.540;2023-02-15T05:01:29;101335.84;;;-2.10;88.66
2188;BME280;1100;52.014;8.540;2023-02-15T05:03:54;101332.31;;;-2.11;88.53
2188;BME280;1100;52.014;8.540;2023-02-15T05:06:20;101327.81;;;-2.16;88.49
2188;BME280;1100;52.014;8.540;2023-02-15T05:08:45;101329.28;;;-2.18;88.46
2188;BME280;1100;52.014;8.540;2023-02-15T05:11:10;101323.31;;;-2.20;88.56
2188;BME280;1100;52.014;8.540;2023-02-15T05:13:36;101326.53;;;-2.18;88.55
2188;BME280;1100;52.014;8.540;2023-02-15T05:16:01;101323.97;;;-2.15;88.60
2188;BME280;1100;52.014;8.540;2023-02-15T05:18:26;101332.47;;;-2.16;88.26
2188;BME280;1100;52.014;8.540;2023-02-15T05:20:52;101336.31;;;-2.26;88.37
2188;BME280;1100;52.014;8.540;2023-02-15T05:23:17;101331.03;;;-2.31;88.44
2188;BME280;1100;52.014;8.540;2023-02-15T05:25:49;101331.50;;;-2.38;88.47
2188;BME280;1100;52.014;8.540;2023-02-15T05:28:35;101327.81;;;-2.42;88.41
2188;BME280;1100;52.014;8.540;2023-02-15T05:31:27;101326.53;;;-2.45;88.62
2188;BME280;1100;52.014;8.540;2023-02-15T05:33:52;101322.81;;;-2.49;88.40
2188;BME280;1100;52.014;8.540;2023-02-15T05:36:17;101318.19;;;-2.48;88.47
2188;BME280;1100;52.014;8.540;2023-02-15T05:38:43;101323.31;;;-2.47;88.67
2188;BME280;1100;52.014;8.540;2023-02-15T05:41:09;101326.22;;;-2.43;88.89
2188;BME280;1100;52.014;8.540;2023-02-15T05:43:36;101324.91;;;-2.46;88.65
2188;BME280;1100;52.014;8.540;2023-02-15T05:46:02;101327.19;;;-2.48;88.62
2188;BME280;1100;52.014;8.540;2023-02-15T05:48:28;101322.69;;;-2.53;88.57
2188;BME280;1100;52.014;8.540;2023-02-15T05:53:22;101337.09;;;-2.52;88.89
2188;BME280;1100;52.014;8.540;2023-02-15T05:55:47;101328.91;;;-2.52;88.66
2188;BME280;1100;52.014;8.540;2023-02-15T05:58:13;101317.56;;;-2.54;88.53
2188;BME280;1100;52.014;8.540;2023-02-15T06:00:38;101318.03;;;-2.52;88.80
2188;BME280;1100;52.014;8.540;2023-02-15T06:03:03;101322.03;;;-2.49;88.68
2188;BME280;1100;52.014;8.540;2023-02-15T06:05:29;101320.09;;;-2.49;88.67
2188;BME280;1100;52.014;8.540;2023-02-15T06:07:54;101323.00;;;-2.45;88.93
2188;BME280;1100;52.014;8.540;2023-02-15T06:10:19;101322.03;;;-2.41;88.94
2188;BME280;1100;52.014;8.540;2023-02-15T06:12:45;101325.72;;;-2.36;88.98
2188;BME280;1100;52.014;8.540;2023-02-15T06:15:10;101324.31;;;-2.34;88.64
2188;BME280;1100;52.014;8.540;2023-02-15T06:17:35;101313.22;;;-2.38;88.57
2188;BME280;1100;52.014;8.540;2023-02-15T06:20:01;101316.59;;;-2.41;88.91
2188;BME280;1100;52.014;8.540;2023-02-15T06:22:26;101308.09;;;-2.39;89.09
2188;BME280;1100;52.014;8.540;2023-02-15T06:24:51;101311.78;;;-2.35;88.99
2188;BME280;1100;52.014;8.540;2023-02-15T06:27:16;101316.44;;;-2.35;88.82
2188;BME280;1100;52.014;8.540;2023-02-15T06:29:42;101315.16;;;-2.38;88.72
2188;BME280;1100;52.014;8.540;2023-02-15T06:32:07;101319.50;;;-2.37;88.95
2188;BME280;1100;52.014;8.540;2023-02-15T06:34:33;101324.94;;;-2.37;88.74
2188;BME280;1100;52.014;8.540;2023-02-15T06:36:58;101329.09;;;-2.40;88.60
2188;BME280;1100;52.014;8.540;2023-02-15T06:39:23;101326.53;;;-2.45;88.56
2188;BME280;1100;52.014;8.540;2023-02-15T06:41:49;101320.09;;;-2.49;88.52
2188;BME280;1100;52.014;8.540;2023-02-15T06:44:14;101322.50;;;-2.56;88.64
2188;BME280;1100;52.014;8.540;2023-02-15T06:46:40;101314.34;;;-2.56;88.59
2188;BME280;1100;52.014;8.540;2023-02-15T06:49:05;101315.63;;;-2.54;88.81
2188;BME280;1100;52.014;8.540;2023-02-15T06:51:30;101308.56;;;-2.46;89.03
2188;BME280;1100;52.014;8.540;2023-02-15T06:53:56;101318.50;;;-2.41;88.86
2188;BME280;1100;52.014;8.540;2023-02-15T06:56:21;101308.28;;;-2.35;89.02
2188;BME280;1100;52.014;8.540;2023-02-15T06:58:47;101324.31;;;-2.34;88.80
2188;BME280;1100;52.014;8.540;2023-02-15T07:01:14;101321.41;;;-2.29;89.01
2188;BME280;1100;52.014;8.540;2023-02-15T07:03:40;101318.34;;;-2.27;88.75
2188;BME280;1100;52.014;8.540;2023-02-15T07:06:06;101309.72;;;-2.29;88.95
2188;BME280;1100;52.014;8.540;2023-02-15T07:08:34;101312.91;;;-2.27;88.74
2188;BME280;1100;52.014;8.540;2023-02-15T07:11:00;101315.31;;;-2.26;88.96
2188;BME280;1100;52.014;8.540;2023-02-15T07:13:44;101322.53;;;-2.21;88.95
2188;BME280;1100;52.014;8.540;2023-02-15T07:16:12;101320.59;;;-2.20;88.79
2188;BME280;1100;52.014;8.540;2023-02-15T07:18:38;101313.41;;;-2.25;88.78
2188;BME280;1100;52.014;8.540;2023-02-15T07:21:04;101315.00;;;-2.24;88.80
2188;BME280;1100;52.014;8.540;2023-02-15T07:23:33;101310.97;;;-2.18;88.88
2188;BME280;1100;52.014;8.540;2023-02-15T07:25:59;101305.06;;;-2.11;88.90
2188;BME280;1100;52.014;8.540;2023-02-15T07:28:25;101319.78;;;-2.03;88.84
2188;BME280;1100;52.014;8.540;2023-02-15T07:30:51;101312.44;;;-2.03;88.81
2188;BME280;1100;52.014;8.540;2023-02-15T07:33:16;101310.97;;;-2.00;88.77
2188;BME280;1100;52.014;8.540;2023-02-15T07:35:52;101310.97;;;-2.00;88.91
2188;BME280;1100;52.014;8.540;2023-02-15T07:38:19;101307.28;;;-1.95;89.16
2188;BME280;1100;52.014;8.540;2023-02-15T07:40:45;101310.63;;;-1.90;88.80
2188;BME280;1100;52.014;8.540;2023-02-15T07:43:11;101303.09;;;-1.84;88.80
2188;BME280;1100;52.014;8.540;2023-02-15T07:45:36;101305.31;;;-1.77;88.97
2188;BME280;1100;52.014;8.540;2023-02-15T07:48:02;101300.97;;;-1.69;89.03
2188;BME280;1100;52.014;8.540;2023-02-15T07:50:31;101303.38;;;-1.59;88.94
2188;BME280;1100;52.014;8.540;2023-02-15T07:52:57;101300.59;;;-1.50;89.27
2188;BME280;1100;52.014;8.540;2023-02-15T07:55:22;101295.09;;;-1.41;89.24
2188;BME280;1100;52.014;8.540;2023-02-15T07:57:49;101294.75;;;-1.31;89.09
2188;BME280;1100;52.014;8.540;2023-02-15T08:00:17;101293.94;;;-1.22;89.33
2188;BME280;1100;52.014;8.540;2023-02-15T08:02:53;101285.19;;;-1.16;88.89
2188;BME280;1100;52.014;8.540;2023-02-15T08:05:37;101283.47;;;-0.90;88.83
2188;BME280;1100;52.014;8.540;2023-02-15T08:08:03;101283.63;;;-0.44;88.58
2188;BME280;1100;52.014;8.540;2023-02-15T08:10:28;101288.38;;;0.02;88.33
2188;BME280;1100;52.014;8.540;2023-02-15T08:13:12;101274.78;;;0.40;88.12
2188;BME280;1100;52.014;8.540;2023-02-15T08:15:38;101270.59;;;0.67;87.89
2188;BME280;1100;52.014;8.540;2023-02-15T08:18:03;101271.84;;;0.95;87.17
2188;BME280;1100;52.014;8.540;2023-02-15T08:20:28;101269.97;;;1.11;87.24
2188;BME280;1100;52.014;8.540;2023-02-15T08:22:56;101269.06;;;1.20;87.38
2188;BME280;1100;52.014;8.540;2023-02-15T08:25:21;101266.97;;;1.42;86.93
2188;BME280;1100;52.014;8.540;2023-02-15T08:27:47;101263.00;;;1.68;86.68
2188;BME280;1100;52.014;8.540;2023-02-15T08:30:13;101260.84;;;1.90;86.86
2188;BME280;1100;52.014;8.540;2023-02-15T08:32:39;101260.09;;;2.05;86.84
2188;BME280;1100;52.014;8.540;2023-02-15T08:35:05;101256.13;;;2.19;86.26
2188;BME280;1100;52.014;8.540;2023-02-15T08:37:32;101256.66;;;2.41;86.15
2188;BME280;1100;52.014;8.540;2023-02-15T08:39:58;101251.44;;;2.52;85.89
2188;BME280;1100;52.014;8.540;2023-02-15T08:42:23;101254.78;;;2.77;86.06
2188;BME280;1100;52.014;8.540;2023-02-15T08:44:48;101251.84;;;2.86;86.18
2188;BME280;1100;52.014;8.540;2023-02-15T08:47:16;101250.47;;;2.76;86.35
2188;BME280;1100;52.014;8.540;2023-02-15T08:49:42;101254.00;;;2.60;86.74
2188;BME280;1100;52.014;8.540;2023-02-15T08:52:07;101248.16;;;2.46;86.68
2188;BME280;1100;52.014;8.540;2023-02-15T08:54:33;101253.13;;;2.24;86.87
2188;BME280;1100;52.014;8.540;2023-02-15T08:56:58;101243.56;;;2.18;87.59
2188;BME280;1100;52.014;8.540;2023-02-15T08:59:24;101242.13;;;2.08;87.42
2188;BME280;1100;52.014;8.540;2023-02-15T09:01:52;101247.09;;;2.02;87.65
2188;BME280;1100;52.014;8.540;2023-02-15T09:04:18;101251.88;;;2.05;87.73
2188;BME280;1100;52.014;8.540;2023-02-15T09:06:45;101247.34;;;2.13;87.49
2188;BME280;1100;52.014;8.540;2023-02-15T09:09:11;101244.19;;;2.27;87.94
2188;BME280;1100;52.014;8.540;2023-02-15T09:11:40;101245.78;;;2.44;87.72
2188;BME280;1100;52.014;8.540;2023-02-15T09:14:19;101245.59;;;2.69;88.06
2188;BME280;1100;52.014;8.540;2023-02-15T09:16:49;101247.97;;;2.87;87.60
2188;BME280;1100;52.014;8.540;2023-02-15T09:19:17;101243.72;;;3.09;87.35
2188;BME280;1100;52.014;8.540;2023-02-15T09:21:43;101240.44;;;3.40;87.56
2188;BME280;1100;52.014;8.540;2023-02-15T09:24:11;101244.47;;;3.66;87.58
2188;BME280;1100;52.014;8.540;2023-02-15T09:26:41;101239.09;;;3.93;86.92
2188;BME280;1100;52.014;8.540;2023-02-15T09:29:08;101245.06;;;4.18;87.16
2188;BME280;1100;52.014;8.540;2023-02-15T09:31:38;101235.41;;;4.55;87.08
2188;BME280;1100;52.014;8.540;2023-02-15T09:34:06;101239.31;;;4.78;86.69
2188;BME280;1100;52.014;8.540;2023-02-15T09:36:36;101240.31;;;4.93;86.68
2188;BME280;1100;52.014;8.540;2023-02-15T09:39:09;101243.19;;;5.00;86.87
2188;BME280;1100;52.014;8.540;2023-02-15T09:44:38;101236.34;;;5.21;86.56
2188;BME280;1100;52.014;8.540;2023-02-15T09:55:24;101225.00;;;5.60;86.13
2188;BME280;1100;52.014;8.540;2023-02-15T09:57:58;101227.50;;;5.73;86.36
2188;BME280;1100;52.014;8.540;2023-02-15T10:00:40;101221.41;;;5.91;86.40
2188;BME280;1100;52.014;8.540;2023-02-15T10:03:17;101219.28;;;6.15;86.04
2188;BME280;1100;52.014;8.540;2023-02-15T10:05:57;101224.88;;;6.22;86.07
2188;BME280;1100;52.014;8.540;2023-02-15T10:11:24;101225.00;;;6.37;86.31
2188;BME280;1100;52.014;8.540;2023-02-15T10:28:41;101212.25;;;7.59;85.38
2188;BME280;1100;52.014;8.540;2023-02-15T10:31:21;101218.97;;;7.62;85.23
2188;BME280;1100;52.014;8.540;2023-02-15T10:33:48;101220.09;;;7.53;85.11
2188;BME280;1100;52.014;8.540;2023-02-15T10:50:27;101216.69;;;8.26;85.48
2188;BME280;1100;52.014;8.540;2023-02-15T10:55:50;101207.59;;;8.36;85.71
2188;BME280;1100;52.014;8.540;2023-02-15T11:06:57;101198.44;;;8.76;85.38
2188;BME280;1100;52.014;8.540;2023-02-15T11:09:25;101201.63;;;8.81;85.56
2188;BME280;1100;52.014;8.540;2023-02-15T11:11:56;101200.03;;;8.80;85.75
2188;BME280;1100;52.014;8.540;2023-02-15T11:14:48;101199.22;;;8.83;85.44
2188;BME280;1100;52.014;8.540;2023-02-15T11:17:22;101193.72;;;8.76;85.47
2188;BME280;1100;52.014;8.540;2023-02-15T11:20:18;101193.31;;;8.81;85.56
2188;BME280;1100;52.014;8.540;2023-02-15T11:22:48;101190.50;;;8.92;85.73
2188;BME280;1100;52.014;8.540;2023-02-15T11:25:20;101193.63;;;9.09;85.76
2188;BME280;1100;52.014;8.540;2023-02-15T11:27:49;101184.84;;;9.18;85.25
2188;BME280;1100;52.014;8.540;2023-02-15T11:30:19;101186.41;;;9.30;85.33
2188;BME280;1100;52.014;8.540;2023-02-15T11:32:52;101187.91;;;9.42;85.62
2188;BME280;1100;52.014;8.540;2023-02-15T11:35:32;101180.31;;;9.57;85.39
2188;BME280;1100;52.014;8.540;2023-02-15T11:38:06;101177.56;;;9.57;84.94
2188;BME280;1100;52.014;8.540;2023-02-15T11:40:44;101174.31;;;9.62;84.99
2188;BME280;1100;52.014;8.540;2023-02-15T11:46:01;101177.66;;;9.99;85.38
2188;BME280;1100;52.014;8.540;2023-02-15T11:48:29;101175.13;;;10.19;85.01
2188;BME280;1100;52.014;8.540;2023-02-15T11:50:56;101184.94;;;10.31;85.02
2188;BME280;1100;52.014;8.540;2023-02-15T11:53:22;101178.88;;;10.40;84.59
2188;BME280;1100;52.014;8.540;2023-02-15T11:55:53;101177.56;;;10.56;84.71
2188;BME280;1100;52.014;8.540;2023-02-15T12:01:04;101163.22;;;11.00;85.30
2188;BME280;1100;52.014;8.540;2023-02-15T12:03:49;101157.03;;;11.16;84.48
2188;BME280;1100;52.014;8.540;2023-02-15T12:06:28;101155.03;;;11.20;84.18
2188;BME280;1100;52.014;8.540;2023-02-15T12:09:17;101158.81;;;11.33;84.55
2188;BME280;1100;52.014;8.540;2023-02-15T12:11:44;101155.94;;;11.41;84.09
2188;BME280;1100;52.014;8.540;2023-02-15T12:14:11;101157.94;;;11.68;84.63
2188;BME280;1100;52.014;8.540;2023-02-15T12:16:51;101150.38;;;11.68;83.60
2188;BME280;1100;52.014;8.540;2023-02-15T12:19:31;101145.81;;;11.54;84.04
2188;BME280;1100;52.014;8.540;2023-02-15T12:21:59;101144.03;;;11.40;83.88
2188;BME280;1100;52.014;8.540;2023-02-15T12:24:36;101144.66;;;11.20;84.62
2188;BME280;1100;52.014;8.540;2023-02-15T12:27:14;101136.03;;;11.11;84.35
2188;BME280;1100;52.014;8.540;2023-02-15T12:29:51;101134.78;;;11.16;84.55
2188;BME280;1100;52.014;8.540;2023-02-15T12:32:46;101134.88;;;11.40;84.74
2188;BME280;1100;52.014;8.540;2023-02-15T12:35:27;101128.25;;;11.57;84.49
2188;BME280;1100;52.014;8.540;2023-02-15T12:37:56;101131.22;;;11.70;84.34
2188;BME280;1100;52.014;8.540;2023-02-15T12:40:28;101125.44;;;11.85;84.27
2188;BME280;1100;52.014;8.540;2023-02-15T12:42:54;101119.41;;;11.90;84.42
2188;BME280;1100;52.014;8.540;2023-02-15T12:45:28;101123.06;;;11.83;84.04
2188;BME280;1100;52.014;8.540;2023-02-15T12:50:38;101107.66;;;11.51;84.74
2188;BME280;1100;52.014;8.540;2023-02-15T12:53:14;101102.88;;;11.52;84.50
2188;BME280;1100;52.014;8.540;2023-02-15T12:58:23;101098.16;;;11.49;84.85
2188;BME280;1100;52.014;8.540;2023-02-15T13:03:34;101096.34;;;11.34;84.35
2188;BME280;1100;52.014;8.540;2023-02-15T13:06:01;101084.47;;;11.34;84.26
2188;BME280;1100;52.014;8.540;2023-02-15T13:08:30;101087.66;;;11.32;84.23
2188;BME280;1100;52.014;8.540;2023-02-15T13:11:00;101088.81;;;11.35;84.44
2188;BME280;1100;52.014;8.540;2023-02-15T13:13:29;101085.50;;;11.44;84.57
2188;BME280;1100;52.014;8.540;2023-02-15T13:16:05;101092.28;;;11.43;84.79
2188;BME280;1100;52.014;8.540;2023-02-15T13:18:36;101087.97;;;11.38;84.61
2188;BME280;1100;52.014;8.540;2023-02-15T13:21:15;101083.44;;;11.20;84.50
2188;BME280;1100;52.014;8.540;2023-02-15T13:24:13;101084.28;;;11.17;84.65
2188;BME280;1100;52.014;8.540;2023-02-15T13:26:34;101079.88;;;11.20;84.71
2188;BME280;1100;52.014;8.540;2023-02-15T13:29:10;101079.31;;;11.32;84.44
2188;BME280;1100;52.014;8.540;2023-02-15T13:31:39;101076.00;;;11.41;84.75
2188;BME280;1100;52.014;8.540;2023-02-15T13:34:12;101066.91;;;11.37;84.46
2188;BME280;1100;52.014;8.540;2023-02-15T13:39:58;101065.16;;;11.47;84.53
2188;BME280;1100;52.014;8.540;2023-02-15T13:48:15;101061.06;;;12.03;84.80
2188;BME280;1100;52.014;8.540;2023-02-15T13:50:55;101060.34;;;12.23;84.39
2188;BME280;1100;52.014;8.540;2023-02-15T13:56:11;101050.09;;;12.57;84.21
2188;BME280;1100;52.014;8.540;2023-02-15T14:12:32;101037.78;;;13.12;83.99
2188;BME280;1100;52.014;8.540;2023-02-15T14:15:25;101021.25;;;13.38;83.81
2188;BME280;1100;52.014;8.540;2023-02-15T14:23:06;101025.19;;;14.03;82.49
2188;BME280;1100;52.014;8.540;2023-02-15T14:25:45;101021.47;;;14.23;82.64
2188;BME280;1100;52.014;8.540;2023-02-15T14:28:30;101022.88;;;14.44;83.05
2188;BME280;1100;52.014;8.540;2023-02-15T14:30:59;101021.72;;;14.72;82.88
2188;BME280;1100;52.014;8.540;2023-02-15T14:33:53;101024.91;;;15.00;81.94
2188;BME280;1100;52.014;8.540;2023-02-15T14:36:19;101021.75;;;15.11;81.78
2188;BME280;1100;52.014;8.540;2023-02-15T14:38:54;101024.97;;;15.22;81.36
2188;BME280;1100;52.014;8.540;2023-02-15T14:41:40;101028.56;;;15.36;81.01
2188;BME280;1100;52.014;8.540;2023-02-15T14:44:46;101022.19;;;15.35;80.21
2188;BME280;1100;52.014;8.540;2023-02-15T14:47:08;101022.28;;;15.31;80.72
2188;BME280;1100;52.014;8.540;2023-02-15T14:49:37;101019.28;;;15.39;80.17
2188;BME280;1100;52.014;8.540;2023-02-15T14:52:05;101021.88;;;15.20;79.33
2188;BME280;1100;52.014;8.540;2023-02-15T14:59:58;101016.25;;;14.81;80.28
2188;BME280;1100;52.014;8.540;2023-02-15T15:07:28;101009.53;;;14.06;80.07
2188;BME280;1100;52.014;8.540;2023-02-15T15:22:50;101005.50;;;12.37;82.17
2188;BME280;1100;52.014;8.540;2023-02-15T15:28:02;101007.84;;;11.74;82.30
2188;BME280;1100;52.014;8.540;2023-02-15T15:41:13;100992.44;;;10.62;81.93
2188;BME280;1100;52.014;8.540;2023-02-15T15:43:44;100989.94;;;10.02;81.98
2188;BME280;1100;52.014;8.540;2023-02-15T15:49:16;100991.44;;;9.22;82.66
2188;BME280;1100;52.014;8.540;2023-02-15T15:51:44;100984.09;;;8.97;83.33
2188;BME280;1100;52.014;8.540;2023-02-15T15:54:19;100988.91;;;8.82;83.75
2188;BME280;1100;52.014;8.540;2023-02-15T15:56:49;100987.06;;;8.64;83.46
2188;BME280;1100;52.014;8.540;2023-02-15T15:59:19;100978.03;;;8.38;83.63
2188;BME280;1100;52.014;8.540;2023-02-15T16:01:46;100980.47;;;8.18;83.78
2188;BME280;1100;52.014;8.540;2023-02-15T16:04:22;100981.69;;;7.98;83.63
2188;BME280;1100;52.014;8.540;2023-02-15T16:06:49;100972.66;;;7.76;83.80
2188;BME280;1100;52.014;8.540;2023-02-15T16:09:25;100971.91;;;7.57;84.01